sensor_id;sensor_type;location;lat;lon;timestamp;P1;durP1;ratioP1;P2;durP2;ratioP2
64353;SDS011;50681;53.334;-6.536;2023-05-29T00:38:23;19.40;;;4.57;;
64353;SDS011;50681;53.334;-6.536;2023-05-29T00:40:49;18.80;;;4.95;;
64353;SDS011;50681;53.334;-6.536;2023-05-29T00:43:15;26.67;;;4.00;;
64353;SDS011;50681;53.334;-6.536;2023-05-29T00:45:40;29.57;;;4.73;;
64353;SDS011;50681;53.334;-6.536;2023-05-29T00:48:05;21.43;;;4.27;;
64353;SDS011;50681;53.334;-6.536;2023-05-29T00:50:32;15.63;;;4.05;;
64353;SDS011;50681;53.334;-6.536;2023-05-29T00:52:58;21.80;;;5.03;;
64353;SDS011;50681;53.334;-6.536;2023-05-29T00:55:26;21.15;;;4.03;;
64353;SDS011;50681;53.334;-6.536;2023-05-29T00:57:52;20.90;;;4.55;;
64353;SDS011;50681;53.334;-6.536;2023-05-29T01:00:18;16.25;;;4.45;;
64353;SDS011;50681;53.334;-6.536;2023-05-29T01:02:47;20.15;;;4.32;;
64353;SDS011;50681;53.334;-6.536;2023-05-29T01:05:13;18.70;;;4.93;;
64353;SDS011;50681;53.334;-6.536;2023-05-29T01:07:40;18.40;;;3.95;;
64353;SDS011;50681;53.334;-6.536;2023-05-29T01:10:06;20.73;;;4.50;;
64353;SDS011;50681;53.334;-6.536;2023-05-29T01:28:24;22.95;;;4.50;;
64353;SDS011;50681;53.334;-6.536;2023-05-29T01:30:52;20.77;;;4.47;;
64353;SDS011;50681;53.334;-6.536;2023-05-29T01:33:19;26.88;;;4.60;;
64353;SDS011;50681;53.334;-6.536;2023-05-29T01:35:45;21.07;;;4.40;;
64353;SDS011;50681;53.334;-6.536;2023-05-29T01:38:10;20.87;;;4.80;;
64353;SDS011;50681;53.334;-6.536;2023-05-29T01:40:36;19.83;;;4.40;;
64353;SDS011;50681;53.334;-6.536;2023-05-29T01:43:02;21.40;;;4.53;;
64353;SDS011;50681;53.334;-6.536;2023-05-29T01:45:28;16.70;;;4.60;;
64353;SDS011;50681;53.334;-6.536;2023-05-29T01:47:54;26.65;;;6.07;;
64353;SDS011;50681;53.334;-6.536;2023-05-29T01:50:20;18.23;;;5.13;;
64353;SDS011;50681;53.334;-6.536;2023-05-29T01:52:48;27.73;;;4.50;;
64353;SDS011;50681;53.334;-6.536;2023-05-29T01:55:14;20.03;;;4.90;;
64353;SDS011;50681;53.334;-6.536;2023-05-29T01:57:40;26.80;;;5.47;;
64353;SDS011;50681;53.334;-6.536;2023-05-29T02:02:40;24.05;;;5.00;;
64353;SDS011;50681;53.334;-6.536;2023-05-29T02:05:07;18.70;;;3.97;;
64353;SDS011;50681;53.334;-6.536;2023-05-29T02:07:36;23.83;;;4.40;;
64353;SDS011;50681;53.334;-6.536;2023-05-29T02:10:05;26.08;;;4.78;;
64353;SDS011;50681;53.334;-6.536;2023-05-29T02:12:31;21.73;;;4.22;;
64353;SDS011;50681;53.334;-6.536;2023-05-29T02:14:56;24.33;;;4.20;;
64353;SDS011;50681;53.334;-6.536;2023-05-29T02:17:22;23.57;;;4.30;;
64353;SDS011;50681;53.334;-6.536;2023-05-29T02:19:49;19.10;;;4.75;;
64353;SDS011;50681;53.334;-6.536;2023-05-29T02:22:14;19.67;;;4.53;;
64353;SDS011;50681;53.334;-6.536;2023-05-29T02:24:42;21.02;;;4.40;;
64353;SDS011;50681;53.334;-6.536;2023-05-29T02:27:07;31.97;;;5.03;;
64353;SDS011;50681;53.334;-6.536;2023-05-29T02:29:32;16.77;;;4.17;;
64353;SDS011;50681;53.334;-6.536;2023-05-29T02:31:58;23.33;;;5.03;;
64353;SDS011;50681;53.334;-6.536;2023-05-29T02:34:23;17.47;;;4.07;;
64353;SDS011;50681;53.334;-6.536;2023-05-29T02:36:49;21.73;;;5.00;;
64353;SDS011;50681;53.334;-6.536;2023-05-29T02:39:17;21.17;;;4.03;;
64353;SDS011;50681;53.334;-6.536;2023-05-29T02:41:43;24.30;;;5.13;;
64353;SDS011;50681;53.334;-6.536;2023-05-29T02:44:08;18.97;;;4.37;;
64353;SDS011;50681;53.334;-6.536;2023-05-29T02:46:33;17.23;;;4.37;;
64353;SDS011;50681;53.334;-6.536;2023-05-29T02:48:59;16.90;;;4.70;;
64353;SDS011;50681;53.334;-6.536;2023-05-29T02:51:25;13.83;;;3.80;;
64353;SDS011;50681;53.334;-6.536;2023-05-29T02:53:50;28.87;;;6.00;;
64353;SDS011;50681;53.334;-6.536;2023-05-29T02:56:15;30.50;;;4.20;;
64353;SDS011;50681;53.334;-6.536;2023-05-29T03:01:07;21.95;;;4.40;;
64353;SDS011;50681;53.334;-6.536;2023-05-29T03:03:33;20.92;;;4.60;;
64353;SDS011;50681;53.334;-6.536;2023-05-29T03:05:58;25.07;;;4.33;;
64353;SDS011;50681;53.334;-6.536;2023-05-29T03:10:52;19.48;;;4.30;;
64353;SDS011;50681;53.334;-6.536;2023-05-29T03:13:18;22.57;;;4.60;;
64353;SDS011;50681;53.334;-6.536;2023-05-29T03:15:43;23.03;;;4.20;;
64353;SDS011;50681;53.334;-6.536;2023-05-29T03:18:09;27.17;;;4.53;;
64353;SDS011;50681;53.334;-6.536;2023-05-29T03:20:35;19.97;;;4.27;;
64353;SDS011;50681;53.334;-6.536;2023-05-29T03:23:00;23.37;;;5.37;;
64353;SDS011;50681;53.334;-6.536;2023-05-29T03:25:26;24.33;;;4.75;;
64353;SDS011;50681;53.334;-6.536;2023-05-29T03:27:51;24.07;;;3.90;;
64353;SDS011;50681;53.334;-6.536;2023-05-29T03:30:17;23.93;;;4.43;;
64353;SDS011;50681;53.334;-6.536;2023-05-29T03:35:09;30.17;;;4.88;;
64353;SDS011;50681;53.334;-6.536;2023-05-29T03:37:34;20.03;;;3.77;;
64353;SDS011;50681;53.334;-6.536;2023-05-29T03:39:59;20.20;;;4.27;;
64353;SDS011;50681;53.334;-6.536;2023-05-29T03:42:25;23.60;;;5.03;;
64353;SDS011;50681;53.334;-6.536;2023-05-29T03:44:50;21.57;;;5.07;;
64353;SDS011;50681;53.334;-6.536;2023-05-29T03:47:16;26.50;;;4.83;;
64353;SDS011;50681;53.334;-6.536;2023-05-29T03:49:41;33.57;;;5.63;;
64353;SDS011;50681;53.334;-6.536;2023-05-29T03:52:06;32.47;;;4.83;;
64353;SDS011;50681;53.334;-6.536;2023-05-29T03:54:32;34.83;;;5.00;;
64353;SDS011;50681;53.334;-6.536;2023-05-29T03:56:58;21.80;;;4.05;;
64353;SDS011;50681;53.334;-6.536;2023-05-29T03:59:23;19.73;;;3.97;;
64353;SDS011;50681;53.334;-6.536;2023-05-29T04:01:49;17.13;;;4.17;;
64353;SDS011;50681;53.334;-6.536;2023-05-29T04:04:14;29.67;;;4.93;;
64353;SDS011;50681;53.334;-6.536;2023-05-29T04:06:39;29.90;;;4.83;;
64353;SDS011;50681;53.334;-6.536;2023-05-29T04:09:05;21.20;;;4.00;;
64353;SDS011;50681;53.334;-6.536;2023-05-29T04:11:32;13.77;;;4.25;;
64353;SDS011;50681;53.334;-6.536;2023-05-29T04:13:59;28.45;;;4.47;;
64353;SDS011;50681;53.334;-6.536;2023-05-29T04:16:27;22.48;;;4.57;;
64353;SDS011;50681;53.334;-6.536;2023-05-29T04:18:54;27.27;;;4.85;;
64353;SDS011;50681;53.334;-6.536;2023-05-29T04:21:20;22.20;;;4.45;;
64353;SDS011;50681;53.334;-6.536;2023-05-29T04:23:46;24.80;;;4.63;;
64353;SDS011;50681;53.334;-6.536;2023-05-29T04:26:11;26.33;;;4.23;;
64353;SDS011;50681;53.334;-6.536;2023-05-29T04:28:38;22.67;;;4.43;;
64353;SDS011;50681;53.334;-6.536;2023-05-29T04:31:04;22.67;;;4.63;;
64353;SDS011;50681;53.334;-6.536;2023-05-29T04:33:30;29.55;;;4.93;;
64353;SDS011;50681;53.334;-6.536;2023-05-29T04:35:58;16.23;;;4.25;;
64353;SDS011;50681;53.334;-6.536;2023-05-29T04:38:26;20.48;;;4.47;;
64353;SDS011;50681;53.334;-6.536;2023-05-29T04:40:52;19.42;;;4.15;;
64353;SDS011;50681;53.334;-6.536;2023-05-29T04:43:22;19.88;;;4.55;;
64353;SDS011;50681;53.334;-6.536;2023-05-29T04:45:47;30.47;;;4.77;;
64353;SDS011;50681;53.334;-6.536;2023-05-29T04:48:13;21.13;;;4.20;;
64353;SDS011;50681;53.334;-6.536;2023-05-29T04:50:39;17.77;;;4.60;;
64353;SDS011;50681;53.334;-6.536;2023-05-29T04:53:04;34.50;;;4.53;;
64353;SDS011;50681;53.334;-6.536;2023-05-29T04:55:29;21.37;;;4.80;;
64353;SDS011;50681;53.334;-6.536;2023-05-29T04:57:55;23.50;;;4.57;;
64353;SDS011;50681;53.334;-6.536;2023-05-29T05:00:20;23.50;;;4.50;;
64353;SDS011;50681;53.334;-6.536;2023-05-29T05:02:46;17.63;;;3.92;;
64353;SDS011;50681;53.334;-6.536;2023-05-29T05:05:11;18.10;;;3.93;;
64353;SDS011;50681;53.334;-6.536;2023-05-29T05:07:37;22.35;;;4.18;;
64353;SDS011;50681;53.334;-6.536;2023-05-29T05:10:03;22.50;;;3.87;;
64353;SDS011;50681;53.334;-6.536;2023-05-29T05:12:29;24.50;;;4.20;;
64353;SDS011;50681;53.334;-6.536;2023-05-29T05:14:54;23.97;;;4.43;;
64353;SDS011;50681;53.334;-6.536;2023-05-29T05:17:20;25.40;;;4.90;;
64353;SDS011;50681;53.334;-6.536;2023-05-29T05:19:45;26.93;;;4.50;;
64353;SDS011;50681;53.334;-6.536;2023-05-29T05:22:11;16.73;;;4.10;;
64353;SDS011;50681;53.334;-6.536;2023-05-29T05:24:36;24.00;;;3.97;;
64353;SDS011;50681;53.334;-6.536;2023-05-29T05:27:03;23.67;;;4.70;;
64353;SDS011;50681;53.334;-6.536;2023-05-29T05:29:30;26.00;;;5.85;;
64353;SDS011;50681;53.334;-6.536;2023-05-29T05:31:55;27.80;;;4.33;;
64353;SDS011;50681;53.334;-6.536;2023-05-29T05:34:21;27.97;;;5.97;;
64353;SDS011;50681;53.334;-6.536;2023-05-29T05:36:46;21.47;;;3.87;;
64353;SDS011;50681;53.334;-6.536;2023-05-29T05:39:11;35.07;;;6.17;;
64353;SDS011;50681;53.334;-6.536;2023-05-29T05:41:37;23.33;;;6.30;;
64353;SDS011;50681;53.334;-6.536;2023-05-29T05:44:02;33.47;;;5.47;;
64353;SDS011;50681;53.334;-6.536;2023-05-29T05:46:28;23.40;;;4.77;;
64353;SDS011;50681;53.334;-6.536;2023-05-29T05:48:54;25.63;;;5.57;;
64353;SDS011;50681;53.334;-6.536;2023-05-29T05:51:22;36.15;;;7.15;;
64353;SDS011;50681;53.334;-6.536;2023-05-29T05:53:48;22.35;;;5.18;;
64353;SDS011;50681;53.334;-6.536;2023-05-29T05:56:15;24.50;;;4.83;;
64353;SDS011;50681;53.334;-6.536;2023-05-29T05:58:40;24.70;;;5.40;;
64353;SDS011;50681;53.334;-6.536;2023-05-29T06:03:33;25.65;;;5.28;;
64353;SDS011;50681;53.334;-6.536;2023-05-29T06:05:59;23.40;;;4.78;;
64353;SDS011;50681;53.334;-6.536;2023-05-29T06:08:25;28.17;;;5.00;;
64353;SDS011;50681;53.334;-6.536;2023-05-29T06:10:51;34.03;;;4.97;;
64353;SDS011;50681;53.334;-6.536;2023-05-29T06:13:16;26.13;;;4.73;;
64353;SDS011;50681;53.334;-6.536;2023-05-29T06:15:42;28.27;;;5.67;;
64353;SDS011;50681;53.334;-6.536;2023-05-29T06:18:08;24.95;;;5.93;;
64353;SDS011;50681;53.334;-6.536;2023-05-29T06:20:33;24.57;;;5.00;;
64353;SDS011;50681;53.334;-6.536;2023-05-29T06:22:59;25.53;;;5.67;;
64353;SDS011;50681;53.334;-6.536;2023-05-29T06:25:24;24.57;;;5.33;;
64353;SDS011;50681;53.334;-6.536;2023-05-29T06:28:00;24.52;;;5.80;;
64353;SDS011;50681;53.334;-6.536;2023-05-29T06:30:27;27.63;;;5.82;;
64353;SDS011;50681;53.334;-6.536;2023-05-29T06:32:53;39.80;;;6.53;;
64353;SDS011;50681;53.334;-6.536;2023-05-29T06:35:19;29.50;;;6.28;;
64353;SDS011;50681;53.334;-6.536;2023-05-29T06:37:45;35.60;;;5.63;;
64353;SDS011;50681;53.334;-6.536;2023-05-29T06:40:11;31.45;;;5.47;;
64353;SDS011;50681;53.334;-6.536;2023-05-29T06:42:37;31.42;;;8.85;;
64353;SDS011;50681;53.334;-6.536;2023-05-29T06:45:03;28.00;;;6.03;;
64353;SDS011;50681;53.334;-6.536;2023-05-29T06:47:28;37.92;;;6.75;;
64353;SDS011;50681;53.334;-6.536;2023-05-29T06:49:54;37.60;;;7.23;;
64353;SDS011;50681;53.334;-6.536;2023-05-29T06:52:19;42.67;;;7.83;;
64353;SDS011;50681;53.334;-6.536;2023-05-29T06:54:47;33.63;;;7.63;;
64353;SDS011;50681;53.334;-6.536;2023-05-29T06:57:12;31.53;;;6.47;;
64353;SDS011;50681;53.334;-6.536;2023-05-29T06:59:38;40.77;;;7.73;;
64353;SDS011;50681;53.334;-6.536;2023-05-29T07:02:04;31.23;;;7.40;;
64353;SDS011;50681;53.334;-6.536;2023-05-29T07:04:30;37.08;;;7.70;;
64353;SDS011;50681;53.334;-6.536;2023-05-29T07:06:55;34.90;;;7.67;;
64353;SDS011;50681;53.334;-6.536;2023-05-29T07:09:21;41.17;;;8.50;;
64353;SDS011;50681;53.334;-6.536;2023-05-29T07:11:46;37.57;;;7.13;;
64353;SDS011;50681;53.334;-6.536;2023-05-29T07:14:12;34.17;;;7.47;;
64353;SDS011;50681;53.334;-6.536;2023-05-29T07:16:37;29.27;;;8.20;;
64353;SDS011;50681;53.334;-6.536;2023-05-29T07:19:03;34.03;;;8.10;;
64353;SDS011;50681;53.334;-6.536;2023-05-29T07:21:29;28.30;;;6.50;;
64353;SDS011;50681;53.334;-6.536;2023-05-29T07:23:56;34.35;;;7.22;;
64353;SDS011;50681;53.334;-6.536;2023-05-29T07:26:21;24.67;;;6.67;;
64353;SDS011;50681;53.334;-6.536;2023-05-29T07:28:47;38.65;;;7.93;;
64353;SDS011;50681;53.334;-6.536;2023-05-29T07:31:13;32.60;;;7.57;;
64353;SDS011;50681;53.334;-6.536;2023-05-29T07:33:39;29.97;;;6.17;;
64353;SDS011;50681;53.334;-6.536;2023-05-29T07:36:06;28.63;;;5.78;;
64353;SDS011;50681;53.334;-6.536;2023-05-29T07:38:32;38.05;;;7.35;;
64353;SDS011;50681;53.334;-6.536;2023-05-29T07:40:57;28.80;;;6.47;;
64353;SDS011;50681;53.334;-6.536;2023-05-29T07:43:23;27.70;;;6.70;;
64353;SDS011;50681;53.334;-6.536;2023-05-29T07:45:48;24.10;;;6.83;;
64353;SDS011;50681;53.334;-6.536;2023-05-29T07:48:14;22.13;;;6.33;;
64353;SDS011;50681;53.334;-6.536;2023-05-29T07:50:39;26.37;;;6.23;;
64353;SDS011;50681;53.334;-6.536;2023-05-29T07:53:12;26.92;;;6.85;;
64353;SDS011;50681;53.334;-6.536;2023-05-29T07:55:37;30.38;;;7.50;;
64353;SDS011;50681;53.334;-6.536;2023-05-29T07:58:03;20.27;;;5.87;;
64353;SDS011;50681;53.334;-6.536;2023-05-29T08:00:28;26.57;;;6.67;;
64353;SDS011;50681;53.334;-6.536;2023-05-29T08:02:54;26.83;;;6.30;;
64353;SDS011;50681;53.334;-6.536;2023-05-29T08:05:20;29.83;;;7.05;;
64353;SDS011;50681;53.334;-6.536;2023-05-29T08:07:45;23.73;;;5.40;;
64353;SDS011;50681;53.334;-6.536;2023-05-29T08:12:37;25.58;;;5.53;;
64353;SDS011;50681;53.334;-6.536;2023-05-29T08:15:03;22.43;;;5.83;;
64353;SDS011;50681;53.334;-6.536;2023-05-29T08:17:28;19.65;;;4.82;;
64353;SDS011;50681;53.334;-6.536;2023-05-29T08:19:54;24.50;;;5.53;;
64353;SDS011;50681;53.334;-6.536;2023-05-29T08:22:20;22.17;;;5.68;;
64353;SDS011;50681;53.334;-6.536;2023-05-29T08:24:47;20.30;;;4.53;;
64353;SDS011;50681;53.334;-6.536;2023-05-29T08:27:12;30.20;;;6.83;;
64353;SDS011;50681;53.334;-6.536;2023-05-29T08:29:39;19.83;;;5.40;;
64353;SDS011;50681;53.334;-6.536;2023-05-29T08:32:04;25.17;;;4.67;;
64353;SDS011;50681;53.334;-6.536;2023-05-29T08:36:56;23.35;;;5.15;;
64353;SDS011;50681;53.334;-6.536;2023-05-29T08:39:22;20.17;;;5.13;;
64353;SDS011;50681;53.334;-6.536;2023-05-29T08:41:57;22.15;;;5.75;;
64353;SDS011;50681;53.334;-6.536;2023-05-29T08:48:07;23.60;;;5.65;;
64353;SDS011;50681;53.334;-6.536;2023-05-29T08:50:35;17.92;;;4.40;;
64353;SDS011;50681;53.334;-6.536;2023-05-29T08:53:16;13.07;;;4.45;;
64353;SDS011;50681;53.334;-6.536;2023-05-29T08:55:44;25.40;;;4.88;;
64353;SDS011;50681;53.334;-6.536;2023-05-29T08:58:11;27.45;;;4.55;;
64353;SDS011;50681;53.334;-6.536;2023-05-29T09:00:38;26.02;;;4.72;;
64353;SDS011;50681;53.334;-6.536;2023-05-29T09:03:07;21.30;;;4.90;;
64353;SDS011;50681;53.334;-6.536;2023-05-29T09:05:32;20.33;;;4.53;;
64353;SDS011;50681;53.334;-6.536;2023-05-29T09:08:04;22.30;;;4.20;;
64353;SDS011;50681;53.334;-6.536;2023-05-29T09:10:30;14.90;;;3.83;;
64353;SDS011;50681;53.334;-6.536;2023-05-29T09:12:56;19.15;;;3.90;;
64353;SDS011;50681;53.334;-6.536;2023-05-29T09:15:22;18.48;;;3.92;;
64353;SDS011;50681;53.334;-6.536;2023-05-29T09:17:51;17.85;;;4.20;;
64353;SDS011;50681;53.334;-6.536;2023-05-29T09:20:18;16.27;;;4.05;;
64353;SDS011;50681;53.334;-6.536;2023-05-29T09:25:26;14.30;;;3.95;;
64353;SDS011;50681;53.334;-6.536;2023-05-29T09:28:04;18.30;;;4.00;;
64353;SDS011;50681;53.334;-6.536;2023-05-29T09:30:36;17.55;;;4.03;;
64353;SDS011;50681;53.334;-6.536;2023-05-29T09:33:03;16.83;;;3.92;;
64353;SDS011;50681;53.334;-6.536;2023-05-29T09:35:33;15.13;;;3.80;;
64353;SDS011;50681;53.334;-6.536;2023-05-29T09:37:59;15.80;;;4.72;;
64353;SDS011;50681;53.334;-6.536;2023-05-29T09:40:26;20.48;;;4.18;;
64353;SDS011;50681;53.334;-6.536;2023-05-29T09:42:51;11.45;;;3.85;;
64353;SDS011;50681;53.334;-6.536;2023-05-29T09:45:17;29.63;;;4.10;;
64353;SDS011;50681;53.334;-6.536;2023-05-29T09:47:43;18.13;;;3.55;;
64353;SDS011;50681;53.334;-6.536;2023-05-29T09:50:17;21.10;;;4.20;;
64353;SDS011;50681;53.334;-6.536;2023-05-29T09:52:45;17.05;;;3.95;;
64353;SDS011;50681;53.334;-6.536;2023-05-29T09:55:12;13.15;;;4.13;;
64353;SDS011;50681;53.334;-6.536;2023-05-29T09:57:44;22.08;;;3.70;;
64353;SDS011;50681;53.334;-6.536;2023-05-29T10:00:12;20.35;;;3.88;;
64353;SDS011;50681;53.334;-6.536;2023-05-29T10:02:45;19.13;;;3.90;;
64353;SDS011;50681;53.334;-6.536;2023-05-29T10:05:11;14.85;;;3.40;;
64353;SDS011;50681;53.334;-6.536;2023-05-29T10:07:40;27.65;;;4.25;;
64353;SDS011;50681;53.334;-6.536;2023-05-29T10:10:18;21.73;;;5.00;;
64353;SDS011;50681;53.334;-6.536;2023-05-29T10:12:44;19.05;;;3.90;;
64353;SDS011;50681;53.334;-6.536;2023-05-29T10:19:44;22.05;;;3.67;;
64353;SDS011;50681;53.334;-6.536;2023-05-29T10:22:12;15.18;;;3.67;;
64353;SDS011;50681;53.334;-6.536;2023-05-29T10:27:30;15.20;;;3.80;;
64353;SDS011;50681;53.334;-6.536;2023-05-29T10:29:59;21.60;;;4.75;;
64353;SDS011;50681;53.334;-6.536;2023-05-29T10:32:44;26.02;;;4.28;;
64353;SDS011;50681;53.334;-6.536;2023-05-29T10:40:40;16.85;;;3.58;;
64353;SDS011;50681;53.334;-6.536;2023-05-29T10:43:31;20.27;;;4.40;;
64353;SDS011;50681;53.334;-6.536;2023-05-29T10:45:59;17.30;;;4.32;;
64353;SDS011;50681;53.334;-6.536;2023-05-29T10:48:38;22.52;;;3.70;;
64353;SDS011;50681;53.334;-6.536;2023-05-29T10:51:27;17.38;;;4.38;;
64353;SDS011;50681;53.334;-6.536;2023-05-29T10:57:36;15.27;;;3.90;;
64353;SDS011;50681;53.334;-6.536;2023-05-29T11:00:28;15.00;;;3.75;;
64353;SDS011;50681;53.334;-6.536;2023-05-29T11:12:15;16.95;;;3.97;;
64353;SDS011;50681;53.334;-6.536;2023-05-29T11:15:00;14.80;;;3.60;;
64353;SDS011;50681;53.334;-6.536;2023-05-29T11:20:08;18.88;;;3.65;;
64353;SDS011;50681;53.334;-6.536;2023-05-29T11:25:32;14.80;;;4.35;;
64353;SDS011;50681;53.334;-6.536;2023-05-29T11:27:59;15.43;;;3.67;;
64353;SDS011;50681;53.334;-6.536;2023-05-29T11:30:25;19.75;;;4.18;;
64353;SDS011;50681;53.334;-6.536;2023-05-29T11:32:52;17.17;;;3.92;;
64353;SDS011;50681;53.334;-6.536;2023-05-29T11:35:19;15.02;;;3.88;;
64353;SDS011;50681;53.334;-6.536;2023-05-29T11:37:47;14.88;;;4.10;;
64353;SDS011;50681;53.334;-6.536;2023-05-29T11:40:13;14.00;;;4.28;;
64353;SDS011;50681;53.334;-6.536;2023-05-29T11:42:43;17.27;;;4.20;;
64353;SDS011;50681;53.334;-6.536;2023-05-29T11:45:12;15.73;;;3.75;;
64353;SDS011;50681;53.334;-6.536;2023-05-29T11:47:57;12.38;;;3.95;;
64353;SDS011;50681;53.334;-6.536;2023-05-29T11:50:24;17.20;;;4.00;;
64353;SDS011;50681;53.334;-6.536;2023-05-29T11:52:55;16.42;;;4.35;;
64353;SDS011;50681;53.334;-6.536;2023-05-29T11:55:27;19.95;;;4.22;;
64353;SDS011;50681;53.334;-6.536;2023-05-29T11:57:56;16.90;;;4.15;;
64353;SDS011;50681;53.334;-6.536;2023-05-29T12:00:24;15.35;;;3.47;;
64353;SDS011;50681;53.334;-6.536;2023-05-29T12:02:50;16.00;;;3.80;;
64353;SDS011;50681;53.334;-6.536;2023-05-29T12:08:01;14.07;;;3.67;;
64353;SDS011;50681;53.334;-6.536;2023-05-29T12:10:29;14.07;;;2.95;;
64353;SDS011;50681;53.334;-6.536;2023-05-29T12:12:57;15.88;;;3.47;;
64353;SDS011;50681;53.334;-6.536;2023-05-29T12:15:24;13.10;;;3.45;;
64353;SDS011;50681;53.334;-6.536;2023-05-29T12:17:50;13.48;;;3.28;;
64353;SDS011;50681;53.334;-6.536;2023-05-29T12:20:17;21.80;;;3.80;;
64353;SDS011;50681;53.334;-6.536;2023-05-29T12:22:44;15.07;;;3.50;;
64353;SDS011;50681;53.334;-6.536;2023-05-29T12:25:14;18.73;;;4.18;;
64353;SDS011;50681;53.334;-6.536;2023-05-29T12:27:44;28.50;;;4.43;;
64353;SDS011;50681;53.334;-6.536;2023-05-29T12:30:20;13.35;;;3.80;;
64353;SDS011;50681;53.334;-6.536;2023-05-29T12:32:47;13.93;;;3.63;;
64353;SDS011;50681;53.334;-6.536;2023-05-29T12:35:33;15.25;;;3.50;;
64353;SDS011;50681;53.334;-6.536;2023-05-29T12:38:05;18.77;;;3.65;;
64353;SDS011;50681;53.334;-6.536;2023-05-29T12:40:33;21.95;;;4.18;;
64353;SDS011;50681;53.334;-6.536;2023-05-29T12:43:02;14.15;;;3.20;;
64353;SDS011;50681;53.334;-6.536;2023-05-29T12:45:30;20.90;;;3.95;;
64353;SDS011;50681;53.334;-6.536;2023-05-29T12:47:57;15.77;;;3.92;;
64353;SDS011;50681;53.334;-6.536;2023-05-29T12:50:27;17.50;;;4.53;;
64353;SDS011;50681;53.334;-6.536;2023-05-29T12:55:23;16.05;;;3.58;;
64353;SDS011;50681;53.334;-6.536;2023-05-29T13:00:15;35.97;;;4.55;;
64353;SDS011;50681;53.334;-6.536;2023-05-29T13:05:16;20.05;;;4.20;;
64353;SDS011;50681;53.334;-6.536;2023-05-29T13:07:44;17.60;;;4.00;;
64353;SDS011;50681;53.334;-6.536;2023-05-29T13:10:11;30.35;;;4.10;;
64353;SDS011;50681;53.334;-6.536;2023-05-29T13:12:36;18.92;;;3.97;;
64353;SDS011;50681;53.334;-6.536;2023-05-29T13:15:02;11.82;;;4.07;;
64353;SDS011;50681;53.334;-6.536;2023-05-29T13:17:27;21.00;;;3.78;;
64353;SDS011;50681;53.334;-6.536;2023-05-29T13:19:53;13.70;;;3.70;;
64353;SDS011;50681;53.334;-6.536;2023-05-29T13:22:18;15.38;;;3.67;;
64353;SDS011;50681;53.334;-6.536;2023-05-29T13:24:44;14.63;;;3.47;;
64353;SDS011;50681;53.334;-6.536;2023-05-29T13:27:10;14.27;;;3.72;;
64353;SDS011;50681;53.334;-6.536;2023-05-29T13:29:38;15.57;;;3.95;;
64353;SDS011;50681;53.334;-6.536;2023-05-29T13:32:06;21.25;;;3.88;;
64353;SDS011;50681;53.334;-6.536;2023-05-29T13:34:31;10.73;;;3.67;;
64353;SDS011;50681;53.334;-6.536;2023-05-29T13:36:57;15.87;;;4.23;;
64353;SDS011;50681;53.334;-6.536;2023-05-29T13:39:23;14.00;;;3.53;;
64353;SDS011;50681;53.334;-6.536;2023-05-29T13:41:50;17.42;;;4.15;;
64353;SDS011;50681;53.334;-6.536;2023-05-29T13:44:16;12.30;;;3.20;;
64353;SDS011;50681;53.334;-6.536;2023-05-29T13:46:42;15.32;;;3.40;;
64353;SDS011;50681;53.334;-6.536;2023-05-29T13:49:08;18.80;;;4.15;;
64353;SDS011;50681;53.334;-6.536;2023-05-29T13:51:33;17.52;;;3.83;;
64353;SDS011;50681;53.334;-6.536;2023-05-29T13:54:00;16.15;;;3.78;;
64353;SDS011;50681;53.334;-6.536;2023-05-29T13:56:27;19.63;;;4.10;;
64353;SDS011;50681;53.334;-6.536;2023-05-29T13:58:52;14.90;;;3.80;;
64353;SDS011;50681;53.334;-6.536;2023-05-29T14:01:18;22.40;;;5.15;;
64353;SDS011;50681;53.334;-6.536;2023-05-29T14:03:49;13.88;;;4.32;;
64353;SDS011;50681;53.334;-6.536;2023-05-29T14:06:15;22.25;;;4.53;;
64353;SDS011;50681;53.334;-6.536;2023-05-29T14:08:40;21.02;;;4.25;;
64353;SDS011;50681;53.334;-6.536;2023-05-29T14:11:06;16.00;;;3.80;;
64353;SDS011;50681;53.334;-6.536;2023-05-29T14:13:31;21.50;;;5.30;;
64353;SDS011;50681;53.334;-6.536;2023-05-29T14:15:57;19.60;;;4.93;;
64353;SDS011;50681;53.334;-6.536;2023-05-29T14:18:22;16.27;;;4.00;;
64353;SDS011;50681;53.334;-6.536;2023-05-29T14:20:48;13.85;;;3.42;;
64353;SDS011;50681;53.334;-6.536;2023-05-29T14:23:16;16.23;;;3.75;;
64353;SDS011;50681;53.334;-6.536;2023-05-29T14:25:42;19.55;;;4.00;;
64353;SDS011;50681;53.334;-6.536;2023-05-29T14:28:07;19.97;;;4.20;;
64353;SDS011;50681;53.334;-6.536;2023-05-29T14:30:33;19.40;;;4.55;;
64353;SDS011;50681;53.334;-6.536;2023-05-29T14:32:59;20.13;;;4.05;;
64353;SDS011;50681;53.334;-6.536;2023-05-29T14:35:25;18.75;;;4.97;;
64353;SDS011;50681;53.334;-6.536;2023-05-29T14:37:50;16.35;;;4.03;;
64353;SDS011;50681;53.334;-6.536;2023-05-29T14:40:16;22.02;;;4.00;;
64353;SDS011;50681;53.334;-6.536;2023-05-29T14:42:42;23.98;;;4.30;;
64353;SDS011;50681;53.334;-6.536;2023-05-29T14:45:07;18.77;;;3.53;;
64353;SDS011;50681;53.334;-6.536;2023-05-29T14:47:33;10.98;;;3.63;;
64353;SDS011;50681;53.334;-6.536;2023-05-29T14:52:25;25.58;;;3.65;;
64353;SDS011;50681;53.334;-6.536;2023-05-29T14:54:50;26.27;;;4.20;;
64353;SDS011;50681;53.334;-6.536;2023-05-29T14:57:16;23.85;;;4.07;;
64353;SDS011;50681;53.334;-6.536;2023-05-29T14:59:41;11.03;;;3.33;;
64353;SDS011;50681;53.334;-6.536;2023-05-29T15:02:06;19.50;;;4.33;;
64353;SDS011;50681;53.334;-6.536;2023-05-29T15:04:32;12.20;;;3.10;;
64353;SDS011;50681;53.334;-6.536;2023-05-29T15:06:58;21.67;;;3.73;;
64353;SDS011;50681;53.334;-6.536;2023-05-29T15:09:23;18.20;;;4.35;;
64353;SDS011;50681;53.334;-6.536;2023-05-29T15:11:49;19.63;;;4.03;;
64353;SDS011;50681;53.334;-6.536;2023-05-29T15:14:14;13.20;;;3.50;;
64353;SDS011;50681;53.334;-6.536;2023-05-29T15:16:42;12.70;;;3.88;;
64353;SDS011;50681;53.334;-6.536;2023-05-29T15:21:33;16.92;;;3.75;;
64353;SDS011;50681;53.334;-6.536;2023-05-29T15:23:59;19.02;;;3.45;;
64353;SDS011;50681;53.334;-6.536;2023-05-29T15:26:24;22.45;;;4.45;;
64353;SDS011;50681;53.334;-6.536;2023-05-29T15:28:51;20.02;;;3.80;;
64353;SDS011;50681;53.334;-6.536;2023-05-29T15:31:17;14.30;;;3.97;;
64353;SDS011;50681;53.334;-6.536;2023-05-29T15:33:42;17.83;;;4.03;;
64353;SDS011;50681;53.334;-6.536;2023-05-29T15:36:08;14.63;;;3.65;;
64353;SDS011;50681;53.334;-6.536;2023-05-29T15:38:33;17.80;;;4.57;;
64353;SDS011;50681;53.334;-6.536;2023-05-29T15:40:59;27.13;;;3.55;;
64353;SDS011;50681;53.334;-6.536;2023-05-29T15:43:25;12.70;;;3.17;;
64353;SDS011;50681;53.334;-6.536;2023-05-29T15:45:50;11.18;;;3.05;;
64353;SDS011;50681;53.334;-6.536;2023-05-29T15:48:16;20.38;;;4.07;;
64353;SDS011;50681;53.334;-6.536;2023-05-29T15:50:42;18.00;;;3.28;;
64353;SDS011;50681;53.334;-6.536;2023-05-29T15:53:07;15.60;;;4.00;;
64353;SDS011;50681;53.334;-6.536;2023-05-29T15:55:33;14.52;;;3.50;;
64353;SDS011;50681;53.334;-6.536;2023-05-29T15:57:58;12.47;;;3.53;;
64353;SDS011;50681;53.334;-6.536;2023-05-29T16:00:24;21.45;;;3.78;;
64353;SDS011;50681;53.334;-6.536;2023-05-29T16:02:49;13.50;;;3.47;;
64353;SDS011;50681;53.334;-6.536;2023-05-29T16:05:15;16.85;;;3.70;;
64353;SDS011;50681;53.334;-6.536;2023-05-29T16:07:41;13.43;;;3.70;;
64353;SDS011;50681;53.334;-6.536;2023-05-29T16:10:10;13.35;;;3.40;;
64353;SDS011;50681;53.334;-6.536;2023-05-29T16:12:36;16.60;;;3.47;;
64353;SDS011;50681;53.334;-6.536;2023-05-29T16:15:01;18.10;;;4.28;;
64353;SDS011;50681;53.334;-6.536;2023-05-29T16:17:27;14.95;;;3.78;;
64353;SDS011;50681;53.334;-6.536;2023-05-29T16:19:53;13.38;;;3.60;;
64353;SDS011;50681;53.334;-6.536;2023-05-29T16:22:20;15.95;;;3.70;;